createdAt,value
2017-12-09T00:01:42.817Z,90.40
2017-12-09T00:04:10.364Z,90.50
2017-12-09T00:06:37.923Z,90.50
2017-12-09T00:09:05.515Z,90.60
2017-12-09T00:11:33.847Z,90.60
2017-12-09T00:14:01.422Z,90.60
2017-12-09T00:16:29.005Z,90.70
2017-12-09T00:18:56.588Z,90.70
2017-12-09T00:21:24.953Z,91.00
2017-12-09T00:23:53.281Z,91.10
2017-12-09T00:26:20.845Z,91.10
2017-12-09T00:28:48.434Z,91.00
2017-12-09T00:31:16.003Z,91.10
2017-12-09T00:33:43.585Z,91.10
2017-12-09T00:36:11.942Z,91.10
2017-12-09T00:38:39.509Z,91.10
2017-12-09T00:41:07.075Z,91.00
2017-12-09T00:43:35.411Z,91.10
2017-12-09T00:46:02.975Z,91.00
2017-12-09T00:48:30.538Z,91.10
2017-12-09T00:50:58.093Z,91.00
2017-12-09T00:53:25.649Z,90.90
2017-12-09T00:55:53.214Z,91.00
2017-12-09T00:58:20.767Z,91.10
2017-12-09T01:00:48.337Z,91.00
2017-12-09T01:03:15.895Z,91.00
2017-12-09T01:05:43.453Z,91.10
2017-12-09T01:08:11.017Z,90.90
2017-12-09T01:10:38.561Z,90.80
2017-12-09T01:13:06.121Z,90.70
2017-12-09T01:15:45.350Z,90.80
2017-12-09T01:18:24.599Z,90.60
2017-12-09T01:20:52.139Z,90.50
2017-12-09T01:23:19.711Z,90.40
2017-12-09T01:25:47.285Z,90.30
2017-12-09T01:28:14.853Z,90.20
2017-12-09T01:30:42.450Z,90.00
2017-12-09T01:33:10.758Z,89.60
2017-12-09T01:35:38.340Z,89.50
2017-12-09T01:38:05.888Z,89.40
2017-12-09T01:40:33.499Z,89.30
2017-12-09T01:43:01.888Z,89.30
2017-12-09T01:45:30.200Z,89.10
2017-12-09T01:47:57.774Z,89.00
2017-12-09T01:50:25.354Z,88.60
2017-12-09T01:52:52.932Z,88.70
2017-12-09T01:55:20.478Z,88.00
2017-12-09T01:57:48.068Z,88.20
2017-12-09T02:00:16.394Z,88.40
2017-12-09T02:02:44.000Z,88.40
2017-12-09T02:05:12.332Z,89.00
2017-12-09T02:07:39.903Z,89.00
2017-12-09T02:10:07.453Z,88.80
2017-12-09T02:12:35.036Z,88.60
2017-12-09T02:15:02.614Z,88.70
2017-12-09T02:17:30.975Z,88.00
2017-12-09T02:19:58.562Z,88.40
2017-12-09T02:22:26.866Z,87.30
2017-12-09T02:24:54.435Z,87.30
2017-12-09T02:27:22.005Z,87.10
2017-12-09T02:29:49.584Z,86.60
2017-12-09T02:32:17.126Z,86.50
2017-12-09T02:34:44.699Z,85.90
2017-12-09T02:37:12.279Z,85.80
2017-12-09T02:39:40.663Z,85.80
2017-12-09T02:42:08.239Z,85.70
2017-12-09T02:44:36.597Z,84.50
2017-12-09T02:47:04.190Z,84.40
2017-12-09T02:49:32.498Z,84.20
2017-12-09T02:52:00.062Z,84.20
2017-12-09T02:54:27.635Z,84.30
2017-12-09T02:56:55.260Z,84.20
2017-12-09T02:59:22.834Z,83.90
2017-12-09T03:01:50.437Z,84.20
2017-12-09T03:04:17.986Z,83.90
2017-12-09T03:06:45.568Z,83.80
2017-12-09T03:09:13.749Z,84.00
2017-12-09T03:11:41.323Z,83.90
2017-12-09T03:14:09.642Z,83.70
2017-12-09T03:16:37.198Z,83.70
2017-12-09T03:19:04.778Z,83.10
2017-12-09T03:21:32.342Z,83.60
2017-12-09T03:23:59.901Z,83.50
2017-12-09T03:26:27.487Z,83.20
2017-12-09T03:28:55.038Z,82.50
2017-12-09T03:31:22.591Z,82.10
2017-12-09T03:33:50.151Z,81.90
2017-12-09T03:36:17.715Z,82.40
2017-12-09T03:38:45.280Z,82.40
2017-12-09T03:41:12.889Z,82.30
2017-12-09T03:43:40.449Z,82.60
2017-12-09T03:46:08.015Z,82.00
2017-12-09T03:48:35.560Z,81.50
2017-12-09T03:51:03.119Z,81.50
2017-12-09T03:53:30.695Z,81.70
2017-12-09T03:55:58.283Z,81.50
2017-12-09T03:58:25.840Z,81.90
2017-12-09T04:00:53.409Z,81.50
2017-12-09T04:03:20.974Z,81.30
2017-12-09T04:05:48.529Z,81.80
2017-12-09T04:08:16.123Z,82.10
2017-12-09T04:10:44.477Z,82.00
2017-12-09T04:13:12.063Z,82.00
2017-12-09T04:15:40.382Z,81.50
2017-12-09T04:18:07.941Z,81.40
2017-12-09T04:20:35.494Z,82.30
2017-12-09T04:23:03.046Z,82.80
2017-12-09T04:25:30.628Z,82.70
2017-12-09T04:27:58.193Z,82.90
2017-12-09T04:30:25.773Z,82.30
2017-12-09T04:32:53.329Z,82.50
2017-12-09T04:35:20.907Z,83.10
2017-12-09T04:37:49.250Z,82.10
2017-12-09T04:40:16.822Z,82.00
2017-12-09T04:42:44.384Z,82.40
2017-12-09T04:45:11.947Z,82.50
2017-12-09T04:47:39.522Z,82.60
2017-12-09T04:50:07.076Z,82.30
2017-12-09T04:52:34.708Z,81.80
2017-12-09T04:55:02.257Z,82.20
2017-12-09T04:57:29.821Z,83.40
2017-12-09T04:59:58.142Z,84.10
2017-12-09T05:02:26.472Z,84.40
2017-12-09T05:04:54.036Z,84.40
2017-12-09T05:07:21.683Z,84.40
2017-12-09T05:09:49.333Z,83.60
2017-12-09T05:12:16.856Z,83.50
2017-12-09T05:14:44.422Z,83.30
2017-12-09T05:17:12.021Z,83.20
2017-12-09T05:19:39.577Z,83.20
2017-12-09T05:22:07.156Z,83.80
2017-12-09T05:24:35.027Z,82.80
2017-12-09T05:27:02.579Z,82.90
2017-12-09T05:29:30.141Z,82.60
2017-12-09T05:31:57.709Z,82.70
2017-12-09T05:34:25.272Z,82.70
2017-12-09T05:36:52.833Z,82.70
2017-12-09T05:39:20.426Z,82.40
2017-12-09T05:41:47.979Z,82.40
2017-12-09T05:44:15.581Z,82.40
2017-12-09T05:46:43.138Z,82.60
2017-12-09T05:49:11.954Z,83.20
2017-12-09T05:51:39.511Z,83.60
2017-12-09T05:54:07.112Z,83.20
2017-12-09T05:56:34.690Z,83.50
2017-12-09T05:59:03.020Z,83.60
2017-12-09T06:01:30.580Z,83.60
2017-12-09T06:03:58.133Z,84.30
2017-12-09T06:06:25.708Z,83.50
2017-12-09T06:08:53.291Z,82.80
2017-12-09T06:11:20.868Z,82.90
2017-12-09T06:13:49.174Z,83.10
2017-12-09T06:16:16.751Z,83.00
2017-12-09T06:18:44.306Z,82.90
2017-12-09T06:21:11.884Z,82.80
2017-12-09T06:23:39.456Z,82.40
2017-12-09T06:26:07.070Z,82.60
2017-12-09T06:28:34.638Z,83.20
2017-12-09T06:31:02.218Z,83.50
2017-12-09T06:33:29.771Z,84.20
2017-12-09T06:35:57.353Z,84.90
2017-12-09T06:38:24.915Z,85.00
2017-12-09T06:40:52.479Z,85.40
2017-12-09T06:43:20.036Z,85.30
2017-12-09T06:45:47.598Z,85.30
2017-12-09T06:48:15.211Z,85.50
2017-12-09T06:50:43.550Z,85.10
2017-12-09T06:53:11.112Z,85.10
2017-12-09T06:55:38.689Z,85.00
2017-12-09T06:58:07.020Z,84.10
2017-12-09T07:00:34.896Z,84.00
2017-12-09T07:03:02.535Z,83.20
2017-12-09T07:05:30.070Z,82.50
2017-12-09T07:07:57.753Z,82.60
2017-12-09T07:10:25.300Z,82.40
2017-12-09T07:12:52.878Z,82.50
2017-12-09T07:15:20.446Z,81.10
2017-12-09T07:17:48.015Z,81.30
2017-12-09T07:20:15.566Z,81.50
2017-12-09T07:22:43.202Z,80.50
2017-12-09T07:25:10.819Z,80.10
2017-12-09T07:27:38.386Z,80.30
2017-12-09T07:30:05.958Z,81.00
2017-12-09T07:32:34.295Z,81.30
2017-12-09T07:35:01.904Z,81.30
2017-12-09T07:37:30.217Z,81.50
2017-12-09T07:39:57.794Z,81.50
2017-12-09T07:42:25.384Z,81.40
2017-12-09T07:44:52.967Z,81.50
2017-12-09T07:47:21.290Z,81.20
2017-12-09T07:49:48.847Z,81.20
2017-12-09T07:52:16.421Z,80.20
2017-12-09T07:54:44.024Z,80.50
2017-12-09T07:57:12.375Z,81.30
2017-12-09T07:59:39.992Z,81.30
2017-12-09T08:02:07.609Z,80.70
2017-12-09T08:04:35.173Z,80.30
2017-12-09T08:07:03.522Z,80.00
2017-12-09T08:09:31.101Z,80.00
2017-12-09T08:11:58.667Z,79.40
2017-12-09T08:14:26.217Z,79.30
2017-12-09T08:16:53.827Z,79.30
2017-12-09T08:19:21.396Z,78.90
2017-12-09T08:21:48.994Z,79.10
2017-12-09T08:24:16.541Z,78.10
2017-12-09T08:26:44.113Z,78.20
2017-12-09T08:29:11.700Z,78.40
2017-12-09T08:31:40.145Z,78.50
2017-12-09T08:34:07.687Z,78.70
2017-12-09T08:36:35.291Z,78.80
2017-12-09T08:39:02.896Z,79.10
2017-12-09T08:41:30.456Z,78.60
2017-12-09T08:43:58.030Z,78.20
2017-12-09T08:46:25.594Z,78.00
2017-12-09T08:48:53.150Z,78.20
2017-12-09T08:51:20.755Z,78.20
2017-12-09T08:53:48.318Z,78.30
2017-12-09T08:56:15.866Z,77.60
2017-12-09T08:58:43.484Z,77.20
2017-12-09T09:01:11.075Z,76.60
2017-12-09T09:03:38.635Z,76.80
2017-12-09T09:06:06.250Z,77.10
2017-12-09T09:08:33.861Z,76.60
2017-12-09T09:11:01.446Z,76.20
2017-12-09T09:13:29.835Z,75.60
2017-12-09T09:15:58.176Z,75.30
2017-12-09T09:18:25.749Z,75.30
2017-12-09T09:20:53.402Z,75.50
2017-12-09T09:23:20.974Z,75.90
2017-12-09T09:25:48.558Z,76.50
2017-12-09T09:28:16.918Z,74.90
2017-12-09T09:30:44.534Z,74.10
2017-12-09T09:33:12.168Z,74.90
2017-12-09T09:35:40.483Z,74.00
2017-12-09T09:38:08.060Z,73.60
2017-12-09T09:40:35.622Z,71.40
2017-12-09T09:43:03.190Z,69.30
2017-12-09T09:45:30.789Z,69.00
2017-12-09T09:47:58.345Z,69.90
2017-12-09T09:50:26.723Z,69.10
2017-12-09T09:52:55.036Z,68.20
2017-12-09T09:55:22.610Z,68.20
2017-12-09T09:57:50.232Z,68.90
2017-12-09T10:00:20.646Z,68.30
2017-12-09T10:02:48.989Z,66.60
2017-12-09T10:05:16.569Z,66.60
2017-12-09T10:07:44.149Z,67.40
2017-12-09T10:10:12.461Z,65.30
2017-12-09T10:12:40.044Z,65.10
2017-12-09T10:15:07.662Z,65.10
2017-12-09T10:17:35.225Z,65.60
2017-12-09T10:20:02.825Z,64.70
2017-12-09T10:22:30.412Z,63.90
2017-12-09T10:24:58.743Z,64.70
2017-12-09T10:27:26.443Z,64.80
2017-12-09T10:29:54.039Z,65.10
2017-12-09T10:32:21.620Z,65.20
2017-12-09T10:34:49.208Z,67.10
2017-12-09T10:37:16.795Z,69.20
2017-12-09T10:39:45.147Z,66.20
2017-12-09T10:42:12.771Z,66.20
2017-12-09T10:44:40.419Z,65.80
2017-12-09T10:47:08.574Z,64.40
2017-12-09T10:49:36.199Z,65.00
2017-12-09T10:52:03.754Z,66.20
2017-12-09T10:54:31.330Z,68.00
2017-12-09T10:56:58.906Z,68.90
2017-12-09T10:59:28.737Z,68.90
2017-12-09T11:01:57.069Z,69.20
2017-12-09T11:04:26.570Z,69.20
2017-12-09T11:06:54.134Z,69.00
2017-12-09T11:09:23.011Z,69.20
2017-12-09T11:11:50.583Z,67.60
2017-12-09T11:14:18.196Z,66.70
2017-12-09T11:16:46.568Z,64.80
2017-12-09T11:19:14.899Z,63.90
2017-12-09T11:21:42.499Z,63.80
2017-12-09T11:24:10.841Z,62.90
2017-12-09T11:26:38.389Z,62.80
2017-12-09T11:29:05.941Z,61.20
2017-12-09T11:31:33.725Z,61.50
2017-12-09T11:34:01.307Z,61.30
2017-12-09T11:36:28.881Z,61.70
2017-12-09T11:38:56.445Z,61.90
2017-12-09T11:41:24.746Z,62.60
2017-12-09T11:43:52.320Z,62.60
2017-12-09T11:46:19.876Z,63.50
2017-12-09T11:48:47.481Z,64.40
2017-12-09T11:51:15.109Z,65.80
2017-12-09T11:53:42.746Z,65.70
2017-12-09T11:56:10.336Z,65.10
2017-12-09T11:58:37.923Z,64.90
2017-12-09T12:01:05.488Z,65.90
2017-12-09T12:03:33.050Z,65.30
2017-12-09T12:06:00.697Z,64.80
2017-12-09T12:08:28.338Z,63.50
2017-12-09T12:10:55.976Z,63.30
2017-12-09T12:13:24.326Z,64.30
2017-12-09T12:15:51.972Z,64.30
2017-12-09T12:18:19.579Z,64.20
2017-12-09T12:20:47.961Z,63.60
2017-12-09T12:23:16.259Z,62.90
2017-12-09T12:25:43.851Z,62.90
2017-12-09T12:28:11.479Z,62.90
2017-12-09T12:30:39.078Z,63.50
2017-12-09T12:33:06.679Z,64.10
2017-12-09T12:35:35.017Z,64.70
2017-12-09T12:38:02.622Z,64.80
2017-12-09T12:40:30.939Z,65.70
2017-12-09T12:42:58.550Z,65.60
2017-12-09T12:45:26.907Z,66.20
2017-12-09T12:47:54.549Z,66.20
2017-12-09T12:50:22.152Z,66.70
2017-12-09T12:52:50.501Z,65.90
2017-12-09T12:55:18.088Z,65.90
2017-12-09T12:57:46.446Z,65.70
2017-12-09T13:00:14.029Z,65.60
2017-12-09T13:02:41.594Z,65.90
2017-12-09T13:05:09.978Z,66.20
2017-12-09T13:07:37.550Z,66.20
2017-12-09T13:10:07.095Z,65.20
2017-12-09T13:12:34.648Z,65.20
2017-12-09T13:15:02.215Z,64.50
2017-12-09T13:17:29.775Z,65.10
2017-12-09T13:19:57.367Z,65.10
2017-12-09T13:22:24.942Z,66.00
2017-12-09T13:24:52.512Z,67.30
2017-12-09T13:27:20.855Z,68.00
2017-12-09T13:29:48.428Z,67.90
2017-12-09T13:32:15.989Z,68.40
2017-12-09T13:41:26.479Z,69.60
2017-12-09T13:43:54.081Z,69.60
2017-12-09T13:46:22.475Z,68.40
2017-12-09T13:48:50.805Z,69.10
2017-12-09T13:51:18.400Z,69.00
2017-12-09T13:53:45.954Z,68.90
2017-12-09T13:56:14.176Z,69.00
2017-12-09T13:58:41.740Z,68.90
2017-12-09T14:01:09.312Z,68.30
2017-12-09T14:03:36.898Z,67.50
2017-12-09T14:06:04.486Z,67.80
2017-12-09T14:08:32.049Z,67.80
2017-12-09T14:10:59.638Z,68.60
2017-12-09T14:13:27.204Z,68.50
2017-12-09T14:15:54.801Z,68.70
2017-12-09T14:18:22.398Z,69.30
2017-12-09T14:20:50.746Z,70.50
2017-12-09T14:23:18.311Z,70.40
2017-12-09T14:25:45.914Z,70.40
2017-12-09T14:28:14.244Z,69.70
2017-12-09T14:30:41.795Z,69.80
2017-12-09T14:33:09.376Z,70.50
2017-12-09T14:35:36.946Z,70.90
2017-12-09T14:38:04.520Z,70.50
2017-12-09T14:40:32.839Z,70.80
2017-12-09T14:43:00.408Z,70.70
2017-12-09T14:45:27.953Z,70.40
2017-12-09T14:47:55.526Z,70.70
2017-12-09T14:50:23.146Z,71.10
2017-12-09T14:52:51.468Z,70.80
2017-12-09T14:55:19.078Z,70.80
2017-12-09T14:57:47.394Z,71.40
2017-12-09T15:00:16.211Z,71.30
2017-12-09T15:02:43.813Z,71.40
2017-12-09T15:05:12.146Z,71.20
2017-12-09T15:07:39.687Z,71.20
2017-12-09T15:10:07.270Z,71.50
2017-12-09T15:12:34.822Z,71.60
2017-12-09T15:15:02.384Z,71.20
2017-12-09T15:17:29.941Z,71.60
2017-12-09T15:20:02.327Z,71.50
2017-12-09T15:22:29.914Z,71.80
2017-12-09T15:24:58.249Z,71.80
2017-12-09T15:27:25.807Z,71.70
2017-12-09T15:29:53.380Z,71.40
2017-12-09T15:32:20.946Z,71.50
2017-12-09T15:34:48.507Z,71.90
2017-12-09T15:37:16.104Z,72.20
2017-12-09T15:39:44.435Z,71.80
2017-12-09T15:42:11.989Z,71.80
2017-12-09T15:44:39.563Z,71.10
2017-12-09T15:47:07.206Z,71.50
2017-12-09T15:49:34.863Z,71.70
2017-12-09T15:52:02.517Z,71.80
2017-12-09T15:54:30.118Z,72.10
2017-12-09T15:56:57.687Z,71.60
2017-12-09T15:59:25.244Z,71.70
2017-12-09T16:01:52.842Z,71.00
2017-12-09T16:04:21.195Z,71.10
2017-12-09T16:06:48.762Z,71.10
2017-12-09T16:09:17.106Z,70.50
2017-12-09T16:11:44.718Z,70.50
2017-12-09T16:14:13.071Z,70.80
2017-12-09T16:16:40.673Z,70.80
2017-12-09T16:19:08.262Z,71.00
2017-12-09T16:21:35.853Z,71.30
2017-12-09T16:24:04.827Z,71.40
2017-12-09T16:26:32.406Z,71.60
2017-12-09T16:29:00.099Z,72.00
2017-12-09T16:31:28.423Z,71.80
2017-12-09T16:33:56.010Z,71.80
2017-12-09T16:36:23.584Z,71.30
2017-12-09T16:38:51.169Z,70.80
2017-12-09T16:41:19.486Z,71.10
2017-12-09T16:43:47.045Z,71.10
2017-12-09T16:46:14.614Z,71.50
2017-12-09T16:48:42.423Z,71.80
2017-12-09T16:51:10.012Z,72.00
2017-12-09T16:53:37.582Z,72.30
2017-12-09T16:56:05.461Z,71.70
2017-12-09T16:58:33.168Z,71.60
2017-12-09T17:01:05.953Z,70.90
2017-12-09T17:03:34.323Z,71.30
2017-12-09T17:06:01.923Z,71.30
2017-12-09T17:08:29.490Z,71.30
2017-12-09T17:10:57.099Z,71.60
2017-12-09T17:13:24.686Z,71.20
2017-12-09T17:15:53.019Z,71.10
2017-12-09T17:18:20.599Z,71.10
2017-12-09T17:20:48.155Z,71.00
2017-12-09T17:23:15.742Z,71.30
2017-12-09T17:25:44.093Z,71.60
2017-12-09T17:28:11.672Z,71.50
2017-12-09T17:30:40.957Z,70.90
2017-12-09T17:33:08.524Z,70.80
2017-12-09T17:35:36.099Z,70.80
2017-12-09T17:38:04.443Z,70.90
2017-12-09T17:40:32.073Z,70.90
2017-12-09T17:42:59.638Z,71.00
2017-12-09T17:45:28.237Z,70.70
2017-12-09T17:47:55.798Z,70.90
2017-12-09T17:50:23.389Z,70.60
2017-12-09T17:52:50.968Z,70.50
2017-12-09T17:55:19.398Z,70.40
2017-12-09T17:57:47.023Z,70.40
2017-12-09T18:00:16.982Z,69.90
2017-12-09T18:02:45.019Z,69.90
2017-12-09T18:05:12.609Z,69.80
2017-12-09T18:07:40.182Z,69.30
2017-12-09T18:10:07.782Z,69.70
2017-12-09T18:12:36.108Z,68.40
2017-12-09T18:15:03.694Z,68.40
2017-12-09T18:17:31.275Z,68.60
2017-12-09T18:19:59.634Z,67.90
2017-12-09T18:22:27.255Z,67.90
2017-12-09T18:24:54.822Z,67.60
2017-12-09T18:27:22.407Z,67.30
2017-12-09T18:29:50.698Z,67.20
2017-12-09T18:32:18.327Z,67.20
2017-12-09T18:34:45.904Z,67.00
2017-12-09T18:37:13.792Z,67.10
2017-12-09T18:39:41.346Z,67.20
2017-12-09T18:42:08.937Z,67.30
2017-12-09T18:44:37.538Z,67.20
2017-12-09T18:47:06.116Z,67.20
2017-12-09T18:49:34.449Z,66.90
2017-12-09T18:52:02.080Z,66.90
2017-12-09T18:54:29.788Z,66.80
2017-12-09T18:57:00.854Z,67.00
2017-12-09T18:59:29.774Z,66.90
2017-12-09T19:01:57.891Z,66.80
2017-12-09T19:04:26.581Z,67.20
2017-12-09T19:06:55.144Z,66.30
2017-12-09T19:09:22.706Z,66.30
2017-12-09T19:11:50.759Z,66.60
2017-12-09T19:14:18.806Z,66.40
2017-12-09T19:16:46.825Z,66.00
2017-12-09T19:19:14.719Z,65.80
2017-12-09T19:21:42.529Z,65.60
2017-12-09T19:24:10.766Z,66.10
2017-12-09T19:26:39.402Z,65.70
2017-12-09T19:29:07.062Z,65.60
2017-12-09T19:31:34.643Z,65.30
2017-12-09T19:34:02.402Z,65.50
2017-12-09T19:36:30.171Z,64.60
2017-12-09T19:38:57.830Z,64.70
2017-12-09T19:41:25.413Z,65.10
2017-12-09T19:43:53.020Z,65.00
2017-12-09T19:46:21.563Z,64.40
2017-12-09T19:48:49.353Z,64.40
2017-12-09T19:51:17.897Z,64.50
2017-12-09T19:53:45.693Z,64.50
2017-12-09T19:56:14.177Z,64.90
2017-12-09T19:58:42.107Z,64.90
2017-12-09T20:01:09.979Z,64.20
2017-12-09T20:03:37.624Z,63.80
2017-12-09T20:06:05.419Z,63.60
2017-12-09T20:08:33.135Z,64.10
2017-12-09T20:11:00.905Z,64.30
2017-12-09T20:13:28.696Z,64.30
2017-12-09T20:15:56.505Z,63.90
2017-12-09T20:18:24.307Z,64.20
2017-12-09T20:20:52.943Z,64.50
2017-12-09T20:23:20.807Z,65.10
2017-12-09T20:25:48.726Z,64.60
2017-12-09T20:28:16.549Z,64.80
2017-12-09T20:30:44.314Z,64.60
2017-12-09T20:33:12.015Z,65.30
2017-12-09T20:35:40.930Z,65.00
2017-12-09T20:38:08.840Z,65.50
2017-12-09T20:40:36.516Z,65.10
2017-12-09T20:43:04.893Z,65.60
2017-12-09T20:45:32.643Z,65.60
2017-12-09T20:48:00.604Z,65.70
2017-12-09T20:50:28.390Z,66.00
2017-12-09T20:52:55.996Z,65.80
2017-12-09T20:55:23.578Z,66.00
2017-12-09T20:57:51.408Z,66.30
2017-12-09T21:00:19.142Z,66.20
2017-12-09T21:02:47.542Z,66.40
2017-12-09T21:05:15.112Z,66.40
2017-12-09T21:07:42.963Z,66.50
2017-12-09T21:10:11.469Z,66.40
2017-12-09T21:12:39.300Z,66.40
2017-12-09T21:15:07.770Z,67.00
2017-12-09T21:17:35.367Z,67.00
2017-12-09T21:20:03.994Z,67.40
2017-12-09T21:22:32.168Z,67.40
2017-12-09T21:25:00.466Z,67.30
2017-12-09T21:27:28.148Z,67.60
2017-12-09T21:29:55.771Z,67.90
2017-12-09T21:32:23.918Z,68.10
2017-12-09T21:34:51.920Z,68.10
2017-12-09T21:37:20.016Z,68.20
2017-12-09T21:39:48.519Z,68.50
2017-12-09T21:42:16.137Z,68.50
2017-12-09T21:44:43.721Z,68.90
2017-12-09T21:47:11.878Z,69.00
2017-12-09T21:49:39.807Z,69.00
2017-12-09T21:52:07.346Z,69.20
2017-12-09T21:54:35.686Z,69.60
2017-12-09T21:57:04.007Z,69.60
2017-12-09T21:59:32.722Z,69.50
2017-12-09T22:02:00.307Z,69.50
2017-12-09T22:04:28.104Z,69.60
2017-12-09T22:06:56.481Z,69.50
2017-12-09T22:09:24.048Z,69.60
2017-12-09T22:11:52.413Z,70.00
2017-12-09T22:14:20.001Z,70.00
2017-12-09T22:16:48.379Z,70.30
2017-12-09T22:19:16.713Z,70.60
2017-12-09T22:21:44.343Z,70.60
2017-12-09T22:24:11.946Z,70.80
2017-12-09T22:26:39.503Z,70.80
2017-12-09T22:29:07.071Z,71.10
2017-12-09T22:31:34.652Z,71.00
2017-12-09T22:34:02.981Z,71.00
2017-12-09T22:36:30.556Z,70.90
2017-12-09T22:38:58.117Z,70.90
2017-12-09T22:41:25.704Z,70.80
2017-12-09T22:43:54.041Z,71.10
2017-12-09T22:46:21.693Z,71.00
2017-12-09T22:48:49.235Z,70.90
2017-12-09T22:51:16.839Z,70.70
2017-12-09T22:53:44.403Z,70.70
2017-12-09T22:56:11.997Z,70.80
2017-12-09T22:58:40.369Z,70.90
2017-12-09T23:01:07.954Z,70.80
2017-12-09T23:03:36.333Z,71.40
2017-12-09T23:06:03.936Z,71.30
2017-12-09T23:08:31.503Z,71.00
2017-12-09T23:10:59.097Z,71.10
2017-12-09T23:13:27.424Z,71.30
2017-12-09T23:15:54.985Z,71.30
2017-12-09T23:18:22.632Z,71.50
2017-12-09T23:20:50.202Z,71.20
2017-12-09T23:23:17.805Z,71.40
2017-12-09T23:25:45.361Z,71.60
2017-12-09T23:28:12.947Z,71.80
2017-12-09T23:30:41.263Z,71.90
2017-12-09T23:33:08.877Z,71.80
2017-12-09T23:35:37.174Z,71.90
2017-12-09T23:38:04.749Z,71.90
2017-12-09T23:40:32.329Z,71.70
2017-12-09T23:42:59.893Z,71.80
2017-12-09T23:45:27.541Z,72.10
2017-12-09T23:47:55.098Z,71.80
2017-12-09T23:50:22.669Z,72.10
2017-12-09T23:52:50.236Z,72.30
2017-12-09T23:55:17.801Z,72.50
2017-12-09T23:57:45.361Z,72.40
